Time;durP1;ratioP1;P1;durP2;ratioP2;P2;SDS_P1;SDS_P2;PMS_P1;PMS_P2;Temp;Humidity;BMP_temperature;BMP_pressure;BME280_temperature;BME280_humidity;BME280_pressure;Samples;Min_cycle;Max_cycle;Signal;HPM_P1;HPM_P2
2021/03/13 00:00:10;;;;;;;10.05;2.47;;;8.30;73.10;;;;;;4980408;28;20038;-90
2021/03/13 00:02:35;;;;;;;8.95;3.03;;;8.30;73.20;;;;;;4982676;28;20085;-94
2021/03/13 00:05:01;;;;;;;8.40;2.25;;;8.30;73.20;;;;;;4988868;28;20018;-93
2021/03/13 00:07:28;;;;;;;8.85;2.47;;;8.30;73.20;;;;;;4989619;28;20023;-96
2021/03/13 00:09:53;;;;;;;6.28;2.20;;;8.30;73.20;;;;;;4995088;28;20089;-95
2021/03/13 00:12:19;;;;;;;11.68;3.13;;;8.30;73.20;;;;;;4991130;28;20019;-96
2021/03/13 00:14:48;;;;;;;6.97;2.50;;;8.30;73.20;;;;;;4989691;28;20501;-95
2021/03/13 00:17:13;;;;;;;6.57;2.30;;;8.30;73.10;;;;;;4985485;28;20077;-96
2021/03/13 00:19:39;;;;;;;7.10;1.88;;;8.30;73.20;;;;;;4994045;28;20419;-95
2021/03/13 00:22:05;;;;;;;7.47;2.20;;;8.30;73.30;;;;;;4995430;28;20034;-95
2021/03/13 00:24:30;;;;;;;7.13;2.55;;;8.30;73.30;;;;;;4990192;28;20019;-96
2021/03/13 00:26:56;;;;;;;6.57;2.20;;;8.30;73.30;;;;;;4987554;28;20026;-95
2021/03/13 00:29:22;;;;;;;7.38;2.58;;;8.30;73.40;;;;;;4994546;28;20031;-94
2021/03/13 00:31:48;;;;;;;6.80;2.00;;;8.30;73.40;;;;;;4994979;28;20373;-93
2021/03/13 00:34:14;;;;;;;11.95;2.58;;;8.40;73.40;;;;;;4993394;28;20490;-94
2021/03/13 00:36:40;;;;;;;6.35;2.17;;;8.30;73.50;;;;;;4995529;28;20050;-95
2021/03/13 00:39:06;;;;;;;9.70;2.40;;;8.30;73.60;;;;;;4988257;28;20118;-95
2021/03/13 00:41:31;;;;;;;9.52;2.75;;;8.30;73.60;;;;;;4990734;28;20340;-95
2021/03/13 00:43:57;;;;;;;9.30;2.10;;;8.30;73.70;;;;;;4995838;28;20023;-95
2021/03/13 00:46:23;;;;;;;7.63;2.10;;;8.20;73.80;;;;;;4983668;28;20030;-94
2021/03/13 00:48:50;;;;;;;9.20;2.33;;;8.20;73.90;;;;;;4991593;28;20033;-95
2021/03/13 00:51:15;;;;;;;9.43;2.40;;;8.20;74.00;;;;;;4990194;28;20484;-94
2021/03/13 00:53:41;;;;;;;12.55;2.95;;;8.20;74.20;;;;;;4992271;28;20019;-95
2021/03/13 00:56:06;;;;;;;11.27;3.05;;;8.20;74.30;;;;;;4985989;28;20029;-95
2021/03/13 00:58:32;;;;;;;6.60;2.20;;;8.10;74.40;;;;;;5001276;28;20106;-94
2021/03/13 01:00:57;;;;;;;11.60;2.53;;;8.10;74.50;;;;;;4999972;28;20022;-96
2021/03/13 01:03:23;;;;;;;8.00;1.80;;;8.10;74.60;;;;;;5006244;28;20065;-95
2021/03/13 01:05:48;;;;;;;7.15;1.90;;;8.10;74.60;;;;;;4998878;28;20083;-94
2021/03/13 01:08:14;;;;;;;5.05;1.77;;;8.10;74.60;;;;;;5009940;28;20034;-93
2021/03/13 01:10:41;;;;;;;8.68;2.33;;;8.10;74.60;;;;;;5001158;28;20022;-94
2021/03/13 01:13:07;;;;;;;8.63;2.22;;;8.20;74.70;;;;;;4997004;28;20029;-94
2021/03/13 01:15:33;;;;;;;10.02;2.00;;;8.20;74.70;;;;;;5016718;28;20010;-94
2021/03/13 01:18:00;;;;;;;14.57;3.38;;;8.20;74.80;;;;;;5019148;28;20021;-94
2021/03/13 01:20:26;;;;;;;11.18;2.85;;;8.20;74.80;;;;;;5017957;28;20033;-93
2021/03/13 01:22:52;;;;;;;8.50;2.50;;;8.10;75.00;;;;;;5018087;28;20042;-96
2021/03/13 01:25:19;;;;;;;6.38;1.90;;;8.10;75.10;;;;;;5009850;28;20007;-95
2021/03/13 01:27:44;;;;;;;4.80;1.83;;;8.10;75.40;;;;;;5018886;28;20045;-93
2021/03/13 01:30:55;;;;;;;6.80;2.30;;;8.10;75.60;;;;;;5010772;28;20023;-95
2021/03/13 01:33:20;;;;;;;7.43;2.15;;;8.10;76.30;;;;;;4997003;28;20044;-93
2021/03/13 01:35:46;;;;;;;5.00;2.20;;;8.00;76.50;;;;;;5010421;28;20058;-92
2021/03/13 01:38:12;;;;;;;4.47;1.60;;;8.00;77.30;;;;;;4999087;28;20010;-93
2021/03/13 01:40:39;;;;;;;10.38;2.47;;;7.90;77.60;;;;;;4998849;28;20023;-93
2021/03/13 01:43:05;;;;;;;8.80;2.85;;;7.90;78.00;;;;;;5015169;28;20044;-93
2021/03/13 01:45:30;;;;;;;8.05;2.10;;;7.90;78.20;;;;;;5015636;28;20030;-91
2021/03/13 01:47:56;;;;;;;7.10;2.42;;;7.90;78.20;;;;;;5014331;28;20034;-91
2021/03/13 01:50:22;;;;;;;8.55;2.72;;;7.90;78.40;;;;;;5013057;28;20002;-92
2021/03/13 01:52:49;;;;;;;5.60;2.38;;;7.80;79.00;;;;;;5012802;28;20023;-92
2021/03/13 01:55:16;;;;;;;9.07;2.80;;;7.80;79.10;;;;;;5001761;28;20014;-92
2021/03/13 01:57:41;;;;;;;6.00;2.13;;;7.80;79.60;;;;;;4992362;28;20053;-93
2021/03/13 02:00:14;;;;;;;6.53;1.92;;;7.70;80.00;;;;;;4993033;28;20458;-92
2021/03/13 02:02:40;;;;;;;7.47;2.90;;;7.80;80.00;;;;;;4993611;28;20401;-91
2021/03/13 02:05:11;;;;;;;8.13;2.70;;;7.80;80.20;;;;;;4993951;28;20022;-91
2021/03/13 02:07:57;;;;;;;10.40;2.70;;;7.70;80.50;;;;;;4992614;28;20104;-92
2021/03/13 02:10:45;;;;;;;9.30;2.72;;;7.70;80.80;;;;;;4990328;28;20031;-89
2021/03/13 02:13:21;;;;;;;6.28;2.30;;;7.70;81.20;;;;;;4993389;28;20396;-91
2021/03/13 02:15:51;;;;;;;5.75;1.98;;;7.60;81.30;;;;;;4977550;28;20031;-90
2021/03/13 02:18:44;;;;;;;6.80;2.30;;;7.60;81.50;;;;;;4989804;28;20030;-90
2021/03/13 02:21:14;;;;;;;5.90;2.03;;;7.60;81.70;;;;;;4985557;28;20033;-92
2021/03/13 02:24:02;;;;;;;4.45;1.92;;;7.50;81.80;;;;;;4973391;28;20122;-90
2021/03/13 02:26:39;;;;;;;5.72;2.33;;;7.60;81.90;;;;;;4986442;28;20073;-91
2021/03/13 02:29:43;;;;;;;6.43;1.95;;;7.50;82.00;;;;;;4992420;28;20109;-91
2021/03/13 02:32:17;;;;;;;8.90;3.00;;;7.60;82.00;;;;;;4982311;28;20041;-90
2021/03/13 02:34:43;;;;;;;8.20;3.08;;;7.50;82.50;;;;;;4981301;28;20026;-91
2021/03/13 02:37:17;;;;;;;4.80;2.10;;;7.40;82.80;;;;;;4993222;28;20038;-91
2021/03/13 02:39:45;;;;;;;6.70;2.40;;;7.40;83.10;;;;;;4990942;28;20627;-91
2021/03/13 02:42:13;;;;;;;3.72;1.92;;;7.40;83.30;;;;;;4990859;28;20716;-91
2021/03/13 02:44:39;;;;;;;7.97;2.80;;;7.40;83.40;;;;;;4990568;28;20046;-91
2021/03/13 02:47:06;;;;;;;5.60;2.80;;;7.40;83.50;;;;;;4972301;28;20023;-91
2021/03/13 02:49:33;;;;;;;6.70;2.78;;;7.50;83.60;;;;;;4992460;28;20057;-91
2021/03/13 02:52:00;;;;;;;6.63;2.90;;;7.40;83.80;;;;;;4973465;28;20038;-91
2021/03/13 02:54:26;;;;;;;4.53;2.58;;;7.40;84.00;;;;;;4987831;28;20030;-91
2021/03/13 02:56:55;;;;;;;5.47;2.22;;;7.30;84.20;;;;;;4979478;28;20027;-92
2021/03/13 02:59:22;;;;;;;6.30;2.80;;;7.40;84.40;;;;;;4989141;28;20026;-92
2021/03/13 03:01:48;;;;;;;4.03;1.50;;;7.40;84.40;;;;;;4984166;28;20109;-91
2021/03/13 03:04:16;;;;;;;4.50;2.35;;;7.40;84.20;;;;;;4992771;28;20034;-90
2021/03/13 03:06:46;;;;;;;5.03;2.58;;;7.40;84.30;;;;;;4991537;28;20023;-89
2021/03/13 03:09:13;;;;;;;4.53;2.70;;;7.40;84.30;;;;;;4993161;28;20031;-91
2021/03/13 03:11:41;;;;;;;6.97;3.05;;;7.40;84.30;;;;;;4995937;28;20026;-90
2021/03/13 03:14:10;;;;;;;3.65;2.03;;;7.40;84.40;;;;;;4985283;28;20513;-91
2021/03/13 03:16:40;;;;;;;5.00;2.38;;;7.50;84.30;;;;;;4995236;28;20027;-93
2021/03/13 03:19:06;;;;;;;7.65;3.78;;;7.50;84.30;;;;;;4996219;28;20046;-91
2021/03/13 03:21:33;;;;;;;5.10;2.90;;;7.50;84.40;;;;;;4987964;28;20019;-90
2021/03/13 03:23:59;;;;;;;6.05;2.80;;;7.50;84.50;;;;;;4995650;28;20030;-90
2021/03/13 03:26:25;;;;;;;6.20;3.20;;;7.40;84.60;;;;;;4988232;28;20125;-89
2021/03/13 03:28:50;;;;;;;5.32;3.15;;;7.40;84.80;;;;;;4995952;28;20109;-91
2021/03/13 03:31:16;;;;;;;5.85;2.83;;;7.40;84.80;;;;;;4987789;28;20115;-92
2021/03/13 03:33:42;;;;;;;7.28;3.15;;;7.40;84.80;;;;;;4995909;28;20029;-93
2021/03/13 03:36:09;;;;;;;8.63;3.83;;;7.50;84.90;;;;;;4989542;28;20022;-91
2021/03/13 03:38:35;;;;;;;5.13;2.67;;;7.40;85.10;;;;;;4992620;28;20077;-91
2021/03/13 03:41:01;;;;;;;7.57;3.15;;;7.40;85.30;;;;;;4995365;28;20026;-91
2021/03/13 03:43:50;;;;;;;7.25;3.30;;;7.50;85.20;;;;;;4993905;28;20026;-91
2021/03/13 03:46:16;;;;;;;7.45;3.33;;;7.50;85.40;;;;;;4993958;28;20030;-91
2021/03/13 03:48:44;;;;;;;8.20;2.63;;;7.50;85.40;;;;;;4994446;28;20022;-90
2021/03/13 03:51:13;;;;;;;5.18;2.40;;;7.50;85.50;;;;;;4985905;28;20022;-89
2021/03/13 03:53:44;;;;;;;7.07;2.78;;;7.50;85.50;;;;;;4994348;28;20088;-91
2021/03/13 03:56:10;;;;;;;4.72;2.10;;;7.50;85.40;;;;;;4994697;28;20018;-89
2021/03/13 03:58:43;;;;;;;7.75;3.55;;;7.50;85.40;;;;;;4991441;28;20384;-90
2021/03/13 04:01:09;;;;;;;6.80;2.72;;;7.50;85.60;;;;;;4994156;28;20018;-91
2021/03/13 04:04:07;;;;;;;5.90;2.40;;;7.50;85.60;;;;;;4995397;28;20591;-91
2021/03/13 04:06:33;;;;;;;6.60;2.60;;;7.50;85.80;;;;;;4970460;28;20038;-91
2021/03/13 04:09:02;;;;;;;5.68;2.42;;;7.50;85.80;;;;;;4975057;28;20026;-90
2021/03/13 04:11:28;;;;;;;7.75;3.25;;;7.60;85.80;;;;;;4980831;28;20025;-89
2021/03/13 04:13:57;;;;;;;5.93;2.28;;;7.50;86.00;;;;;;4976397;28;20058;-89
2021/03/13 04:16:24;;;;;;;5.50;2.30;;;7.60;86.10;;;;;;4992775;28;20034;-92
2021/03/13 04:18:49;;;;;;;7.65;2.75;;;7.50;86.00;;;;;;5004565;28;20025;-91
2021/03/13 04:21:16;;;;;;;4.50;2.00;;;7.60;85.90;;;;;;5002677;28;20018;-90
2021/03/13 04:23:46;;;;;;;5.32;2.28;;;7.60;86.00;;;;;;5001281;28;20507;-91
2021/03/13 04:26:12;;;;;;;6.03;2.03;;;7.60;86.10;;;;;;4996336;28;20025;-90
2021/03/13 04:28:37;;;;;;;4.57;2.53;;;7.70;86.10;;;;;;4996012;28;20030;-91
2021/03/13 04:31:05;;;;;;;4.05;2.13;;;7.60;86.10;;;;;;4995484;28;20077;-90
2021/03/13 04:33:32;;;;;;;8.18;3.58;;;7.60;86.10;;;;;;4992868;28;20512;-89
2021/03/13 04:35:59;;;;;;;7.78;2.72;;;7.60;86.20;;;;;;4994468;28;20596;-90
2021/03/13 04:38:26;;;;;;;5.90;2.40;;;7.70;86.10;;;;;;4987712;28;20037;-88
2021/03/13 04:40:53;;;;;;;7.18;2.53;;;7.70;86.10;;;;;;4984547;28;20022;-90
2021/03/13 04:43:22;;;;;;;6.63;2.90;;;7.70;86.10;;;;;;4993410;28;20045;-91
2021/03/13 04:45:48;;;;;;;6.68;2.53;;;7.70;86.00;;;;;;4994608;28;20018;-91
2021/03/13 04:48:14;;;;;;;6.45;2.70;;;7.70;86.10;;;;;;4995077;28;20061;-89
2021/03/13 04:50:41;;;;;;;4.75;2.47;;;7.70;86.10;;;;;;4993749;28;20564;-90
2021/03/13 04:53:07;;;;;;;6.45;3.03;;;7.70;86.20;;;;;;4993861;28;20023;-89
2021/03/13 04:55:33;;;;;;;7.03;3.22;;;7.70;86.10;;;;;;4978246;28;20030;-91
2021/03/13 04:57:58;;;;;;;6.32;2.47;;;7.70;86.70;;;;;;4984033;28;20037;-91
2021/03/13 05:00:24;;;;;;;5.88;2.63;;;7.70;86.10;;;;;;4995357;28;20026;-91
2021/03/13 05:02:50;;;;;;;5.72;2.78;;;7.80;86.10;;;;;;4991976;28;20073;-92
2021/03/13 05:05:16;;;;;;;4.30;2.30;;;7.80;85.90;;;;;;4990218;28;20030;-90
2021/03/13 05:07:42;;;;;;;6.38;2.33;;;7.80;85.80;;;;;;4994595;28;20442;-92
2021/03/13 05:10:09;;;;;;;7.95;3.17;;;7.90;85.70;;;;;;4995244;28;20030;-91
2021/03/13 05:12:35;;;;;;;8.38;3.28;;;7.90;85.60;;;;;;4988074;28;20023;-91
2021/03/13 05:15:02;;;;;;;8.25;3.22;;;7.90;85.50;;;;;;4987906;28;20439;-91
2021/03/13 05:17:28;;;;;;;6.05;2.40;;;7.90;85.60;;;;;;4981014;28;20104;-90
2021/03/13 05:19:53;;;;;;;5.00;2.70;;;7.90;85.50;;;;;;4994435;28;20019;-92
2021/03/13 05:22:19;;;;;;;5.70;2.65;;;8.00;85.50;;;;;;4993340;28;20411;-90
2021/03/13 05:24:44;;;;;;;2.65;1.73;;;8.00;85.70;;;;;;4993400;28;20032;-91
2021/03/13 05:27:10;;;;;;;5.32;2.20;;;8.00;85.60;;;;;;4991917;28;20027;-90
2021/03/13 05:29:36;;;;;;;6.07;2.40;;;8.00;85.50;;;;;;4994124;28;20022;-91
2021/03/13 05:32:02;;;;;;;5.03;2.45;;;8.00;85.50;;;;;;4994437;28;20381;-92
2021/03/13 05:34:27;;;;;;;4.95;2.30;;;8.10;85.70;;;;;;4992224;28;20113;-92
2021/03/13 05:36:53;;;;;;;4.30;2.05;;;8.00;85.80;;;;;;4994227;28;20097;-91
2021/03/13 05:39:18;;;;;;;3.60;2.03;;;8.00;86.00;;;;;;4978765;28;20421;-91
2021/03/13 05:41:46;;;;;;;3.42;1.73;;;8.00;86.00;;;;;;4974775;28;20159;-91
2021/03/13 05:44:12;;;;;;;5.60;2.38;;;8.00;85.90;;;;;;4985399;28;20023;-90
2021/03/13 05:46:41;;;;;;;5.28;2.22;;;8.10;86.00;;;;;;4978169;28;20014;-90
2021/03/13 05:49:08;;;;;;;5.10;2.20;;;8.10;86.00;;;;;;4993510;28;20034;-91
2021/03/13 05:51:43;;;;;;;7.28;2.60;;;8.10;86.00;;;;;;4979621;28;20019;-92
2021/03/13 05:54:11;;;;;;;2.83;1.80;;;8.10;86.20;;;;;;4986073;28;20030;-94
2021/03/13 05:56:37;;;;;;;4.68;2.25;;;8.10;86.20;;;;;;4981452;28;20162;-92
2021/03/13 05:59:03;;;;;;;4.30;2.00;;;8.10;86.20;;;;;;4992142;28;20061;-92
2021/03/13 06:01:29;;;;;;;4.20;1.83;;;8.10;86.20;;;;;;4992511;28;20487;-91
2021/03/13 06:03:56;;;;;;;5.43;2.30;;;8.10;86.30;;;;;;4992316;28;20113;-90
2021/03/13 06:06:23;;;;;;;5.95;2.10;;;8.10;86.30;;;;;;4980947;28;20057;-89
2021/03/13 06:08:49;;;;;;;5.10;2.33;;;8.10;86.30;;;;;;4981534;28;20168;-89
2021/03/13 06:11:20;;;;;;;5.63;1.85;;;8.10;86.40;;;;;;4985499;28;20109;-88
2021/03/13 06:13:46;;;;;;;2.10;1.30;;;8.10;86.50;;;;;;4978250;28;20027;-89
2021/03/13 06:16:12;;;;;;;5.18;2.15;;;8.20;86.50;;;;;;4983748;28;20168;-89
2021/03/13 06:18:49;;;;;;;4.90;1.35;;;8.20;86.70;;;;;;4983972;28;20100;-91
2021/03/13 06:21:31;;;;;;;3.47;1.55;;;8.10;86.80;;;;;;4990545;28;20359;-90
2021/03/13 06:24:15;;;;;;;2.22;1.15;;;8.00;86.40;;;;;;4991101;28;20045;-90
2021/03/13 06:27:01;;;;;;;1.60;0.60;;;8.00;87.10;;;;;;4987717;28;20042;-88
2021/03/13 06:29:31;;;;;;;0.88;0.77;;;7.90;86.20;;;;;;4976697;28;20035;-90
2021/03/13 06:32:08;;;;;;;2.00;0.70;;;7.80;85.50;;;;;;4989594;28;20054;-90
2021/03/13 06:34:34;;;;;;;0.95;0.80;;;7.70;85.00;;;;;;4991101;28;20118;-92
2021/03/13 06:37:21;;;;;;;2.08;0.70;;;7.70;84.30;;;;;;4992122;28;20139;-89
2021/03/13 06:39:47;;;;;;;1.48;0.60;;;7.60;83.80;;;;;;4985998;28;20029;-90
2021/03/13 06:42:39;;;;;;;0.73;0.60;;;7.60;83.50;;;;;;4988789;28;20090;-93
2021/03/13 06:45:08;;;;;;;2.05;0.60;;;7.60;83.30;;;;;;4987466;28;20616;-92
2021/03/13 06:47:39;;;;;;;1.50;0.80;;;7.70;83.30;;;;;;4997491;28;20018;-92
2021/03/13 06:50:18;;;;;;;1.65;1.00;;;7.70;83.20;;;;;;4984032;28;20033;-92
2021/03/13 06:52:51;;;;;;;1.20;0.80;;;7.70;83.20;;;;;;4988240;28;20551;-92
2021/03/13 06:55:18;;;;;;;1.95;1.02;;;7.70;83.20;;;;;;4993967;28;20096;-92
2021/03/13 06:57:45;;;;;;;2.88;1.15;;;7.80;83.30;;;;;;4986310;28;20048;-90
2021/03/13 07:00:26;;;;;;;1.45;1.00;;;7.80;83.20;;;;;;4990936;28;20052;-92
2021/03/13 07:02:52;;;;;;;1.20;0.93;;;7.80;83.00;;;;;;4981089;28;20474;-92
2021/03/13 07:05:27;;;;;;;1.17;0.90;;;7.90;82.70;;;;;;4992971;28;20085;-93
2021/03/13 07:07:53;;;;;;;2.63;1.08;;;7.90;82.30;;;;;;4993939;28;20380;-91
2021/03/13 07:10:26;;;;;;;2.28;1.10;;;7.90;80.90;;;;;;4992964;28;20030;-92
2021/03/13 07:12:51;;;;;;;1.85;0.98;;;7.90;80.30;;;;;;4995382;28;20063;-92
2021/03/13 07:15:25;;;;;;;3.22;1.30;;;7.90;80.10;;;;;;4991759;28;20484;-91
2021/03/13 07:18:00;;;;;;;4.63;1.08;;;7.90;79.20;;;;;;4981156;28;20023;-91
2021/03/13 07:20:27;;;;;;;3.78;1.05;;;8.00;78.70;;;;;;4988614;28;20030;-92
2021/03/13 07:22:55;;;;;;;4.07;1.08;;;8.00;78.10;;;;;;4994806;28;20046;-93
2021/03/13 07:25:22;;;;;;;4.90;1.50;;;8.00;78.10;;;;;;4987630;28;20023;-93
2021/03/13 07:27:54;;;;;;;5.28;1.10;;;8.00;77.60;;;;;;4997664;28;20058;-93
2021/03/13 07:30:20;;;;;;;5.57;1.42;;;8.00;77.30;;;;;;4988003;28;20027;-96
2021/03/13 07:32:55;;;;;;;4.97;1.20;;;8.00;76.90;;;;;;4995917;28;20026;-94
2021/03/13 07:35:22;;;;;;;4.10;1.13;;;8.00;76.40;;;;;;4996251;28;20022;-95
2021/03/13 07:37:53;;;;;;;3.00;1.20;;;8.00;76.20;;;;;;4995470;28;20548;-94
2021/03/13 07:40:20;;;;;;;3.83;1.05;;;8.10;76.30;;;;;;4998207;28;20036;-94
2021/03/13 07:42:47;;;;;;;6.80;1.23;;;8.20;76.20;;;;;;4985142;28;20043;-92
2021/03/13 07:45:14;;;;;;;3.65;1.02;;;8.20;76.50;;;;;;4993865;28;20022;-95
2021/03/13 07:47:41;;;;;;;3.97;1.27;;;8.40;75.70;;;;;;4985728;28;20018;-92
2021/03/13 07:50:12;;;;;;;5.45;1.50;;;8.30;75.10;;;;;;4993942;28;20022;-93
2021/03/13 07:52:39;;;;;;;4.32;1.20;;;8.30;75.20;;;;;;4995442;28;20497;-93
2021/03/13 07:55:14;;;;;;;8.43;1.95;;;8.30;74.80;;;;;;4994560;28;20026;-95
2021/03/13 07:57:49;;;;;;;4.88;1.40;;;8.40;74.20;;;;;;4994808;28;20030;-95
2021/03/13 08:00:15;;;;;;;9.30;1.60;;;8.50;74.20;;;;;;4991908;28;20031;-92
2021/03/13 08:02:45;;;;;;;5.45;1.40;;;8.50;73.80;;;;;;4994841;28;20022;-94
2021/03/13 08:05:16;;;;;;;6.93;1.80;;;8.60;73.50;;;;;;4987091;28;20022;-90
2021/03/13 08:07:52;;;;;;;5.22;1.77;;;8.60;73.00;;;;;;4984986;28;20031;-92
2021/03/13 08:10:43;;;;;;;5.70;1.83;;;8.80;72.90;;;;;;4990300;28;20037;-92
2021/03/13 08:13:10;;;;;;;5.63;1.63;;;8.90;72.70;;;;;;4984282;28;20031;-90
2021/03/13 08:15:39;;;;;;;7.85;2.10;;;9.00;72.30;;;;;;4986347;28;20492;-90
2021/03/13 08:18:05;;;;;;;8.20;2.10;;;9.00;71.00;;;;;;4985973;28;20026;-90
2021/03/13 08:20:34;;;;;;;7.57;1.90;;;9.10;71.20;;;;;;4987597;28;20026;-90
2021/03/13 08:23:12;;;;;;;6.55;2.00;;;9.10;70.70;;;;;;4983406;28;20037;-90
2021/03/13 08:25:54;;;;;;;8.00;1.85;;;9.20;71.00;;;;;;4985696;28;20034;-90
2021/03/13 08:28:56;;;;;;;12.32;2.40;;;9.40;70.70;;;;;;4983563;28;20026;-89
2021/03/13 08:31:24;;;;;;;9.52;2.08;;;9.40;70.30;;;;;;4946325;29;20064;-96
2021/03/13 08:34:11;;;;;;;8.48;2.50;;;9.40;70.40;;;;;;4984069;28;20499;-93
2021/03/13 08:36:40;;;;;;;10.38;2.17;;;9.30;70.50;;;;;;4966173;28;20096;-94
2021/03/13 08:39:10;;;;;;;7.45;1.73;;;9.10;71.10;;;;;;4987173;28;20260;-91
2021/03/13 08:41:42;;;;;;;8.13;2.35;;;9.00;70.80;;;;;;4985301;28;20081;-89
2021/03/13 08:44:13;;;;;;;7.90;1.80;;;8.80;71.70;;;;;;4982293;28;20035;-92
2021/03/13 08:46:58;;;;;;;7.35;1.80;;;8.70;72.50;;;;;;4984315;28;20290;-96
2021/03/13 08:49:27;;;;;;;7.18;1.98;;;8.60;73.40;;;;;;4985355;28;20195;-90
2021/03/13 08:52:07;;;;;;;10.38;2.20;;;8.50;74.10;;;;;;4984686;28;20041;-89
2021/03/13 08:54:44;;;;;;;9.18;1.90;;;8.40;74.50;;;;;;4986045;28;20041;-86
2021/03/13 08:57:27;;;;;;;7.78;2.17;;;8.30;75.00;;;;;;4990386;28;20088;-91
2021/03/13 08:59:56;;;;;;;5.20;1.55;;;8.20;75.40;;;;;;4978065;28;20022;-87
2021/03/13 09:02:25;;;;;;;6.25;1.65;;;8.20;75.90;;;;;;4978344;28;20050;-88
2021/03/13 09:04:55;;;;;;;7.43;1.70;;;8.20;76.20;;;;;;4981471;28;20022;-88
2021/03/13 09:07:22;;;;;;;9.32;2.17;;;8.10;77.10;;;;;;4985837;28;20057;-88
2021/03/13 09:09:48;;;;;;;8.30;2.40;;;8.10;77.00;;;;;;4993873;28;20136;-90
2021/03/13 09:12:16;;;;;;;8.18;2.33;;;8.10;77.30;;;;;;4985343;28;20099;-88
2021/03/13 09:14:53;;;;;;;9.18;2.38;;;8.10;77.30;;;;;;4979007;28;20023;-88
2021/03/13 09:17:31;;;;;;;6.70;1.85;;;8.20;77.20;;;;;;4978395;28;20015;-89
2021/03/13 09:20:05;;;;;;;11.60;3.10;;;8.20;77.00;;;;;;4985709;28;20057;-90
2021/03/13 09:22:31;;;;;;;10.80;2.58;;;8.20;76.40;;;;;;4985364;28;20038;-90
2021/03/13 09:24:58;;;;;;;10.85;2.40;;;8.20;76.30;;;;;;4979503;28;20053;-92
2021/03/13 09:27:31;;;;;;;11.52;2.60;;;8.20;76.00;;;;;;4990093;28;20118;-90
2021/03/13 09:29:59;;;;;;;9.40;2.38;;;8.30;75.50;;;;;;4981506;28;20027;-89
2021/03/13 09:32:28;;;;;;;11.32;3.20;;;8.30;75.00;;;;;;4971331;28;20050;-92
2021/03/13 09:34:55;;;;;;;13.15;3.08;;;8.30;74.30;;;;;;4987599;28;20046;-91
2021/03/13 09:37:27;;;;;;;11.27;2.47;;;8.40;73.70;;;;;;4993356;28;20089;-91
2021/03/13 09:40:16;;;;;;;12.90;3.00;;;8.40;73.70;;;;;;4991333;28;20097;-92
2021/03/13 09:42:44;;;;;;;10.07;2.63;;;8.50;73.70;;;;;;4988217;28;20066;-93
2021/03/13 09:45:12;;;;;;;9.43;2.40;;;8.50;73.90;;;;;;4980926;28;20034;-92
2021/03/13 09:47:49;;;;;;;9.77;2.60;;;8.50;74.10;;;;;;4983986;28;20420;-92
2021/03/13 09:50:17;;;;;;;9.93;2.88;;;8.50;74.20;;;;;;4979474;28;20027;-91
2021/03/13 09:52:49;;;;;;;11.88;2.95;;;8.50;75.00;;;;;;4978227;28;20030;-92
2021/03/13 09:55:15;;;;;;;11.13;2.50;;;8.50;74.40;;;;;;4993751;28;20022;-93
2021/03/13 09:57:47;;;;;;;10.43;2.58;;;8.60;74.20;;;;;;4989495;28;20050;-92
2021/03/13 10:00:21;;;;;;;11.52;2.47;;;8.60;73.80;;;;;;4994003;28;20027;-92
2021/03/13 10:02:50;;;;;;;11.23;2.38;;;8.70;73.60;;;;;;4987636;28;20050;-92
2021/03/13 10:05:18;;;;;;;9.80;2.47;;;8.70;73.30;;;;;;4989431;28;20010;-93
2021/03/13 10:07:46;;;;;;;10.13;2.22;;;8.70;73.20;;;;;;4992938;28;20031;-89
2021/03/13 10:10:20;;;;;;;12.00;2.50;;;8.50;72.90;;;;;;4993647;28;20027;-92
2021/03/13 10:13:00;;;;;;;6.40;1.80;;;8.50;73.30;;;;;;4988641;28;20113;-90
2021/03/13 10:15:34;;;;;;;4.25;1.40;;;8.30;73.70;;;;;;4972945;28;20058;-93
2021/03/13 10:18:12;;;;;;;5.63;1.60;;;8.10;74.10;;;;;;4980809;28;20508;-92
2021/03/13 10:20:37;;;;;;;8.15;2.15;;;7.90;74.80;;;;;;4990878;28;20033;-91
2021/03/13 10:23:03;;;;;;;9.13;2.35;;;7.70;75.40;;;;;;4991770;28;20038;-90
2021/03/13 10:25:29;;;;;;;12.45;2.88;;;7.60;75.90;;;;;;4991545;28;20026;-90
2021/03/13 10:28:22;;;;;;;10.95;2.88;;;7.60;76.30;;;;;;4987256;28;20457;-91
2021/03/13 10:30:47;;;;;;;8.45;2.38;;;7.60;76.80;;;;;;4977784;28;20083;-91
2021/03/13 10:33:14;;;;;;;8.02;2.53;;;7.70;77.20;;;;;;4990822;28;20041;-91
2021/03/13 10:35:40;;;;;;;10.63;2.25;;;7.80;77.30;;;;;;4991428;28;20033;-91
2021/03/13 10:38:09;;;;;;;12.43;1.85;;;7.80;77.20;;;;;;4991130;28;20069;-91
2021/03/13 10:40:49;;;;;;;10.05;3.08;;;7.80;77.40;;;;;;4992991;28;20015;-91
2021/03/13 10:43:24;;;;;;;10.05;3.03;;;7.80;77.70;;;;;;4982571;28;20031;-90
2021/03/13 10:45:55;;;;;;;9.23;2.75;;;7.80;78.30;;;;;;4976529;28;20037;-90
2021/03/13 10:48:21;;;;;;;10.90;2.88;;;7.70;78.30;;;;;;4979057;28;20030;-91
2021/03/13 10:50:49;;;;;;;11.57;2.65;;;7.80;78.60;;;;;;4993171;28;20011;-89
2021/03/13 10:53:31;;;;;;;14.77;3.08;;;7.90;78.50;;;;;;4980129;28;20026;-90
2021/03/13 10:56:05;;;;;;;15.73;3.53;;;8.00;78.20;;;;;;4977240;28;20031;-90
2021/03/13 10:58:48;;;;;;;17.88;3.67;;;8.20;77.70;;;;;;4987877;28;20031;-91
2021/03/13 11:01:13;;;;;;;;;;;8.40;76.70;;;;;;4988486;28;20019;-91
2021/03/13 11:03:42;;;;;;;14.52;3.25;;;8.60;75.80;;;;;;4987397;28;19917;-91
2021/03/13 11:06:11;;;;;;;16.77;2.85;;;8.70;74.80;;;;;;4991184;28;20027;-91
2021/03/13 11:08:36;;;;;;;9.60;3.17;;;8.80;74.20;;;;;;4987970;28;20092;-91
2021/03/13 11:11:02;;;;;;;12.32;3.50;;;8.90;73.50;;;;;;4980973;28;20428;-90
2021/03/13 11:13:28;;;;;;;15.35;3.25;;;8.90;73.40;;;;;;4987247;28;20030;-91
2021/03/13 11:15:54;;;;;;;19.40;3.45;;;9.10;72.90;;;;;;4984485;28;20076;-89
2021/03/13 11:18:20;;;;;;;10.50;3.03;;;9.20;72.20;;;;;;4988900;28;20033;-90
2021/03/13 11:20:46;;;;;;;10.52;2.80;;;9.40;71.70;;;;;;4982464;28;20022;-89
2021/03/13 11:23:13;;;;;;;12.80;2.70;;;9.60;70.30;;;;;;4983936;28;20515;-93
2021/03/13 11:25:40;;;;;;;11.88;3.00;;;9.70;69.40;;;;;;4984296;28;20068;-93
2021/03/13 11:28:07;;;;;;;10.88;2.20;;;9.80;69.00;;;;;;4988688;28;20046;-90
2021/03/13 11:30:33;;;;;;;11.80;3.20;;;9.90;69.10;;;;;;4979733;28;20492;-90
2021/03/13 11:32:59;;;;;;;8.40;2.58;;;10.00;68.30;;;;;;4990348;28;20118;-94
2021/03/13 11:35:26;;;;;;;13.52;2.70;;;10.10;67.90;;;;;;4985901;28;20030;-94
2021/03/13 11:37:52;;;;;;;10.63;2.78;;;10.10;67.40;;;;;;4993927;28;20087;-94
2021/03/13 11:40:20;;;;;;;9.80;2.33;;;10.10;65.50;;;;;;4985919;28;20033;-91
2021/03/13 11:42:46;;;;;;;10.68;2.67;;;10.10;65.80;;;;;;4983068;28;20548;-94
2021/03/13 11:45:13;;;;;;;8.65;2.33;;;10.00;64.50;;;;;;4984690;28;20593;-93
2021/03/13 11:47:39;;;;;;;11.02;2.95;;;10.00;65.20;;;;;;4999884;28;20118;-93
2021/03/13 11:50:13;;;;;;;6.82;2.10;;;10.10;65.40;;;;;;4988770;28;20097;-94
2021/03/13 11:52:39;;;;;;;8.20;2.45;;;10.20;65.70;;;;;;4993056;28;20218;-94
2021/03/13 11:55:07;;;;;;;8.48;2.22;;;10.40;65.50;;;;;;4990381;28;20018;-92
2021/03/13 11:57:32;;;;;;;9.25;2.42;;;10.50;64.90;;;;;;4992452;28;20046;-92
2021/03/13 11:59:58;;;;;;;8.82;2.10;;;10.60;64.90;;;;;;5005450;28;20073;-93
2021/03/13 12:02:24;;;;;;;9.80;2.22;;;10.80;65.20;;;;;;4988471;28;20033;-94
2021/03/13 12:04:49;;;;;;;6.70;1.90;;;10.90;64.70;;;;;;4985957;28;20054;-93
2021/03/13 12:07:15;;;;;;;11.68;2.72;;;11.00;64.50;;;;;;4985123;28;20061;-93
2021/03/13 12:09:41;;;;;;;7.65;1.90;;;11.10;64.00;;;;;;4987344;28;20537;-93
2021/03/13 12:12:10;;;;;;;11.80;2.75;;;11.00;62.60;;;;;;5007024;28;20033;-94
2021/03/13 12:14:39;;;;;;;7.63;2.05;;;10.90;61.90;;;;;;5004335;28;20030;-95
2021/03/13 12:17:07;;;;;;;8.60;2.28;;;10.80;62.40;;;;;;5005799;28;20106;-93
2021/03/13 12:19:33;;;;;;;11.55;2.72;;;10.60;63.30;;;;;;5008926;28;20042;-93
2021/03/13 12:22:00;;;;;;;10.18;3.08;;;10.50;63.80;;;;;;5005054;28;20026;-94
2021/03/13 12:24:26;;;;;;;6.85;1.83;;;10.30;63.90;;;;;;5005298;28;20101;-94
2021/03/13 12:26:52;;;;;;;4.32;1.40;;;10.10;65.20;;;;;;5011981;28;20033;-91
2021/03/13 12:29:17;;;;;;;5.30;1.58;;;9.70;66.40;;;;;;5015105;28;20042;-94
2021/03/13 12:31:43;;;;;;;3.92;1.30;;;9.40;67.40;;;;;;5012240;28;20044;-93
2021/03/13 12:34:09;;;;;;;4.50;1.20;;;9.20;68.40;;;;;;5014866;28;20034;-91
2021/03/13 12:36:35;;;;;;;4.78;1.42;;;9.10;68.70;;;;;;5014015;28;20045;-92
2021/03/13 12:39:00;;;;;;;4.88;1.48;;;9.00;68.30;;;;;;5016305;28;20014;-92
2021/03/13 12:41:26;;;;;;;6.85;1.40;;;9.00;68.00;;;;;;4999652;28;20046;-94
2021/03/13 12:43:52;;;;;;;5.25;1.75;;;9.10;68.30;;;;;;4998710;28;20027;-94
2021/03/13 12:46:18;;;;;;;5.03;1.63;;;9.20;68.40;;;;;;5001372;28;20026;-93
2021/03/13 12:48:45;;;;;;;4.70;1.45;;;9.40;68.10;;;;;;5001953;28;20042;-93
2021/03/13 12:51:11;;;;;;;7.10;1.58;;;9.60;67.80;;;;;;4994737;28;20027;-94
2021/03/13 12:53:36;;;;;;;7.32;1.58;;;9.70;67.10;;;;;;5006439;28;20026;-91
2021/03/13 12:56:03;;;;;;;7.65;2.10;;;9.80;66.50;;;;;;5013756;28;20543;-93
2021/03/13 12:58:29;;;;;;;5.80;1.77;;;9.70;66.20;;;;;;5009578;28;20022;-92
2021/03/13 13:00:54;;;;;;;5.72;1.52;;;9.80;66.40;;;;;;5013192;28;20042;-92
2021/03/13 13:03:20;;;;;;;6.63;1.80;;;9.70;66.80;;;;;;5010903;28;20043;-90
2021/03/13 13:05:46;;;;;;;5.30;1.70;;;9.60;66.90;;;;;;4995149;28;20057;-93